Utah State University
, Logan
Last Weather Update:09/29/2011 11:00:00 PM
Date
ETo
ETc
Rain
Irrigation
Req
Temp
Max
Temp
Min
Temp
Avg
Avg RH
Avg Wind
Avg Solar
inches
inches
incehs
inches
F
F
F
%
%
watts/m2
08/01/2011 0.11" 0.10" 0.79" -0.53" 79.9° 61.9° 67.7° 78.0% 1.3 MPH 162.7w/m2
08/02/2011 0.19" 0.17" 0.00" 0.17" 86.7° 59.3° 71.5° 55.3% 2.4 MPH 279.9w/m2
08/03/2011 0.21" 0.18" 0.00" 0.18" 83.6° 62.6° 72.9° 50.9% 2.8 MPH 291.7w/m2
08/04/2011 0.23" 0.20" 0.00" 0.20" 88.5° 59.9° 73.2° 47.8% 3.4 MPH 323.6w/m2
08/05/2011 0.22" 0.19" 0.01" 0.18" 87.6° 57.1° 71.2° 49.1% 2.4 MPH 319.4w/m2
08/06/2011 0.23" 0.20" 0.00" 0.20" 88.7° 59.0° 72.2° 37.9% 3.6 MPH 323.6w/m2
08/07/2011 0.23" 0.20" 0.00" 0.20" 86.8° 58.7° 71.3° 34.0% 4.6 MPH 295.2w/m2
08/08/2011 0.25" 0.21" 0.00" 0.21" 88.4° 59.6° 72.6° 32.4% 4.5 MPH 322.5w/m2
08/09/2011 0.24" 0.20" 0.00" 0.20" 86.4° 57.6° 71.3° 33.2% 4.2 MPH 317.6w/m2
08/10/2011 0.23" 0.20" 0.00" 0.20" 87.4° 58.0° 71.8° 33.1% 3.9 MPH 320.3w/m2
08/11/2011 0.23" 0.19" 0.00" 0.19" 87.3° 56.5° 71.5° 30.4% 4.3 MPH 317.7w/m2
08/12/2011 0.23" 0.19" 0.00" 0.19" 87.0° 55.5° 70.2° 33.7% 4.2 MPH 318.8w/m2
08/13/2011 0.24" 0.20" 0.00" 0.20" 92.7° 60.0° 75.4° 28.8% 4.3 MPH 298.3w/m2
08/14/2011 0.24" 0.20" 0.00" 0.20" 90.0° 67.5° 79.3° 28.8% 3.4 MPH 308.2w/m2
08/15/2011 0.21" 0.17" 0.04" 0.14" 85.6° 61.4° 73.0° 43.2% 3.5 MPH 290.3w/m2
08/16/2011 0.21" 0.17" 0.00" 0.17" 86.2° 54.2° 69.1° 35.0% 3.8 MPH 310.5w/m2
08/17/2011 0.24" 0.19" 0.00" 0.19" 89.5° 59.4° 72.7° 27.7% 4.7 MPH 309.2w/m2
08/18/2011 0.24" 0.19" 0.00" 0.19" 91.4° 58.0° 73.1° 24.7% 4.8 MPH 297.7w/m2
08/19/2011 0.19" 0.15" 0.00" 0.15" 90.1° 58.2° 72.1° 32.5% 3.9 MPH 248.1w/m2
08/20/2011 0.23" 0.18" 0.00" 0.18" 92.4° 62.1° 77.5° 35.3% 4.0 MPH 282.8w/m2
08/21/2011 0.23" 0.18" 0.00" 0.18" 91.0° 66.2° 77.1° 33.8% 4.4 MPH 287.5w/m2
08/22/2011 0.26" 0.20" 0.00" 0.20" 91.9° 62.7° 77.0° 26.3% 6.2 MPH 294.5w/m2
08/23/2011 0.23" 0.18" 0.00" 0.18" 94.4° 61.1° 76.2° 26.9% 4.6 MPH 297.0w/m2
08/24/2011 0.23" 0.17" 0.00" 0.17" 96.3° 64.5° 78.3° 27.8% 4.0 MPH 291.2w/m2
08/25/2011 0.24" 0.17" 0.00" 0.17" 95.3° 70.0° 81.8° 27.3% 4.9 MPH 253.9w/m2
08/26/2011 0.23" 0.17" 0.00" 0.17" 95.8° 71.0° 82.1° 27.9% 3.9 MPH 275.9w/m2
08/27/2011 0.22" 0.16" 0.00" 0.16" 93.8° 67.3° 79.8° 33.8% 4.3 MPH 265.6w/m2
08/28/2011 0.15" 0.11" 0.00" 0.11" 89.1° 67.6° 76.3° 46.0% 1.5 MPH 202.4w/m2
08/29/2011 0.20" 0.14" 0.01" 0.13" 87.2° 62.6° 73.4° 48.5% 3.0 MPH 278.6w/m2
08/30/2011 0.18" 0.13" 0.00" 0.13" 87.8° 60.9° 73.5° 40.1% 4.5 MPH 224.0w/m2
08/31/2011 0.25" 0.17" 0.00" 0.17" 90.0° 65.4° 78.7° 24.7% 4.4 MPH 278.1w/m2
Totals: 6.83" 5.44" 0.85" 4.76" 96.3° 54.2° 74.3° 36.6% 3.9 MPH 286.7w/m2